sensor_id;sensor_type;location;lat;lon;timestamp;temperature;humidity
75786;DHT22;64402;44.708;37.644;2023-04-23T00:01:55;11.10;85.67
75786;DHT22;64402;44.708;37.644;2023-04-23T00:04:25;11.11;86.01
75786;DHT22;64402;44.708;37.644;2023-04-23T00:06:51;11.13;86.10
75786;DHT22;64402;44.708;37.644;2023-04-23T00:09:18;11.16;86.02
75786;DHT22;64402;44.708;37.644;2023-04-23T00:11:44;11.18;85.90
75786;DHT22;64402;44.708;37.644;2023-04-23T00:14:11;11.17;85.62
75786;DHT22;64402;44.708;37.644;2023-04-23T00:16:38;11.18;85.10
75786;DHT22;64402;44.708;37.644;2023-04-23T00:19:05;11.18;84.84
75786;DHT22;64402;44.708;37.644;2023-04-23T00:21:32;11.16;84.93
75786;DHT22;64402;44.708;37.644;2023-04-23T00:23:58;11.17;85.10
75786;DHT22;64402;44.708;37.644;2023-04-23T00:26:24;11.17;84.98
75786;DHT22;64402;44.708;37.644;2023-04-23T00:28:50;11.16;84.94
75786;DHT22;64402;44.708;37.644;2023-04-23T00:31:16;11.17;85.24
75786;DHT22;64402;44.708;37.644;2023-04-23T00:33:43;11.16;85.48
75786;DHT22;64402;44.708;37.644;2023-04-23T00:36:12;11.17;85.70
75786;DHT22;64402;44.708;37.644;2023-04-23T00:38:38;11.16;85.55
75786;DHT22;64402;44.708;37.644;2023-04-23T00:41:05;11.14;85.65
75786;DHT22;64402;44.708;37.644;2023-04-23T00:43:32;11.16;85.78
75786;DHT22;64402;44.708;37.644;2023-04-23T00:45:59;11.17;85.71
75786;DHT22;64402;44.708;37.644;2023-04-23T00:48:25;11.19;85.86
75786;DHT22;64402;44.708;37.644;2023-04-23T00:51:01;11.18;86.06
75786;DHT22;64402;44.708;37.644;2023-04-23T00:53:28;11.19;86.38
75786;DHT22;64402;44.708;37.644;2023-04-23T00:55:54;11.19;86.56
75786;DHT22;64402;44.708;37.644;2023-04-23T00:58:21;11.19;86.61
75786;DHT22;64402;44.708;37.644;2023-04-23T01:00:49;11.19;85.93
75786;DHT22;64402;44.708;37.644;2023-04-23T01:03:17;11.22;85.82
75786;DHT22;64402;44.708;37.644;2023-04-23T01:05:43;11.20;85.62
75786;DHT22;64402;44.708;37.644;2023-04-23T01:08:13;11.22;85.62
75786;DHT22;64402;44.708;37.644;2023-04-23T01:10:42;11.20;85.57
75786;DHT22;64402;44.708;37.644;2023-04-23T01:13:08;11.19;86.00
75786;DHT22;64402;44.708;37.644;2023-04-23T01:15:36;11.18;86.44
75786;DHT22;64402;44.708;37.644;2023-04-23T01:18:03;11.18;86.57
75786;DHT22;64402;44.708;37.644;2023-04-23T01:20:36;11.19;86.99
75786;DHT22;64402;44.708;37.644;2023-04-23T01:23:03;11.20;87.29
75786;DHT22;64402;44.708;37.644;2023-04-23T01:25:30;11.22;87.42
75786;DHT22;64402;44.708;37.644;2023-04-23T01:27:57;11.23;87.65
75786;DHT22;64402;44.708;37.644;2023-04-23T01:30:27;11.26;87.58
75786;DHT22;64402;44.708;37.644;2023-04-23T01:32:55;11.26;87.80
75786;DHT22;64402;44.708;37.644;2023-04-23T01:35:22;11.22;87.88
75786;DHT22;64402;44.708;37.644;2023-04-23T01:37:50;11.23;87.50
75786;DHT22;64402;44.708;37.644;2023-04-23T01:40:18;11.22;87.67
75786;DHT22;64402;44.708;37.644;2023-04-23T01:42:47;11.24;87.77
75786;DHT22;64402;44.708;37.644;2023-04-23T01:45:13;11.24;87.74
75786;DHT22;64402;44.708;37.644;2023-04-23T01:47:40;11.23;87.73
75786;DHT22;64402;44.708;37.644;2023-04-23T01:50:08;11.24;87.91
75786;DHT22;64402;44.708;37.644;2023-04-23T01:52:34;11.24;88.20
75786;DHT22;64402;44.708;37.644;2023-04-23T01:55:01;11.26;88.25
75786;DHT22;64402;44.708;37.644;2023-04-23T01:57:28;11.26;88.26
75786;DHT22;64402;44.708;37.644;2023-04-23T02:00:07;11.25;88.28
75786;DHT22;64402;44.708;37.644;2023-04-23T02:02:34;11.24;88.21
75786;DHT22;64402;44.708;37.644;2023-04-23T02:05:01;11.24;87.03
75786;DHT22;64402;44.708;37.644;2023-04-23T02:07:33;11.27;87.33
75786;DHT22;64402;44.708;37.644;2023-04-23T02:10:00;11.28;87.70
75786;DHT22;64402;44.708;37.644;2023-04-23T02:12:27;11.29;87.46
75786;DHT22;64402;44.708;37.644;2023-04-23T02:14:53;11.29;86.88
75786;DHT22;64402;44.708;37.644;2023-04-23T02:17:20;11.31;87.22
75786;DHT22;64402;44.708;37.644;2023-04-23T02:19:48;11.30;87.23
75786;DHT22;64402;44.708;37.644;2023-04-23T02:22:16;11.31;87.10
75786;DHT22;64402;44.708;37.644;2023-04-23T02:24:42;11.32;87.46
75786;DHT22;64402;44.708;37.644;2023-04-23T02:27:09;11.33;87.43
75786;DHT22;64402;44.708;37.644;2023-04-23T02:29:36;11.34;87.67
75786;DHT22;64402;44.708;37.644;2023-04-23T02:32:08;11.36;87.62
75786;DHT22;64402;44.708;37.644;2023-04-23T02:34:34;11.38;87.35
75786;DHT22;64402;44.708;37.644;2023-04-23T02:37:01;11.37;87.54
75786;DHT22;64402;44.708;37.644;2023-04-23T02:39:27;11.38;87.63
75786;DHT22;64402;44.708;37.644;2023-04-23T02:41:53;11.40;87.79
75786;DHT22;64402;44.708;37.644;2023-04-23T02:44:21;11.40;87.05
75786;DHT22;64402;44.708;37.644;2023-04-23T02:46:47;11.43;86.74
75786;DHT22;64402;44.708;37.644;2023-04-23T02:49:13;11.45;87.08
75786;DHT22;64402;44.708;37.644;2023-04-23T02:51:39;11.42;87.51
75786;DHT22;64402;44.708;37.644;2023-04-23T02:54:06;11.42;87.74
75786;DHT22;64402;44.708;37.644;2023-04-23T02:56:32;11.44;87.66
75786;DHT22;64402;44.708;37.644;2023-04-23T02:58:59;11.42;87.77
75786;DHT22;64402;44.708;37.644;2023-04-23T03:01:26;11.42;88.14
75786;DHT22;64402;44.708;37.644;2023-04-23T03:03:52;11.45;88.05
75786;DHT22;64402;44.708;37.644;2023-04-23T03:06:18;11.43;87.89
75786;DHT22;64402;44.708;37.644;2023-04-23T03:08:45;11.44;87.67
75786;DHT22;64402;44.708;37.644;2023-04-23T03:11:11;11.44;87.52
75786;DHT22;64402;44.708;37.644;2023-04-23T03:13:37;11.45;87.59
75786;DHT22;64402;44.708;37.644;2023-04-23T03:16:03;11.48;87.67
75786;DHT22;64402;44.708;37.644;2023-04-23T03:18:30;11.51;87.41
75786;DHT22;64402;44.708;37.644;2023-04-23T03:20:56;11.53;87.21
75786;DHT22;64402;44.708;37.644;2023-04-23T03:23:22;11.58;87.41
75786;DHT22;64402;44.708;37.644;2023-04-23T03:25:50;11.56;87.08
75786;DHT22;64402;44.708;37.644;2023-04-23T03:28:16;11.60;87.10
75786;DHT22;64402;44.708;37.644;2023-04-23T03:30:42;11.60;87.02
75786;DHT22;64402;44.708;37.644;2023-04-23T03:33:08;11.62;86.99
75786;DHT22;64402;44.708;37.644;2023-04-23T03:35:34;11.66;86.88
75786;DHT22;64402;44.708;37.644;2023-04-23T03:38:01;11.72;86.92
75786;DHT22;64402;44.708;37.644;2023-04-23T03:40:27;11.77;86.82
75786;DHT22;64402;44.708;37.644;2023-04-23T03:42:56;11.82;86.37
75786;DHT22;64402;44.708;37.644;2023-04-23T03:45:25;11.77;86.03
75786;DHT22;64402;44.708;37.644;2023-04-23T03:47:51;11.76;86.06
75786;DHT22;64402;44.708;37.644;2023-04-23T03:50:17;11.83;85.44
75786;DHT22;64402;44.708;37.644;2023-04-23T03:52:44;11.87;85.17
75786;DHT22;64402;44.708;37.644;2023-04-23T03:55:10;11.94;85.33
75786;DHT22;64402;44.708;37.644;2023-04-23T03:57:37;12.01;85.33
75786;DHT22;64402;44.708;37.644;2023-04-23T04:00:04;12.06;85.40
75786;DHT22;64402;44.708;37.644;2023-04-23T04:02:33;12.10;85.28
75786;DHT22;64402;44.708;37.644;2023-04-23T04:04:59;12.19;84.77
75786;DHT22;64402;44.708;37.644;2023-04-23T04:07:26;12.29;83.80
75786;DHT22;64402;44.708;37.644;2023-04-23T04:09:53;12.33;84.10
75786;DHT22;64402;44.708;37.644;2023-04-23T04:12:19;12.41;83.77
75786;DHT22;64402;44.708;37.644;2023-04-23T04:14:45;12.38;82.94
75786;DHT22;64402;44.708;37.644;2023-04-23T04:17:11;12.45;82.66
75786;DHT22;64402;44.708;37.644;2023-04-23T04:19:41;12.44;82.82
75786;DHT22;64402;44.708;37.644;2023-04-23T04:22:08;12.41;82.64
75786;DHT22;64402;44.708;37.644;2023-04-23T04:24:34;12.41;82.81
75786;DHT22;64402;44.708;37.644;2023-04-23T04:27:01;12.42;82.56
75786;DHT22;64402;44.708;37.644;2023-04-23T04:29:27;12.43;82.65
75786;DHT22;64402;44.708;37.644;2023-04-23T04:31:53;12.40;83.23
75786;DHT22;64402;44.708;37.644;2023-04-23T04:34:20;12.37;83.52
75786;DHT22;64402;44.708;37.644;2023-04-23T04:36:46;12.31;83.75
75786;DHT22;64402;44.708;37.644;2023-04-23T04:39:12;12.30;83.97
75786;DHT22;64402;44.708;37.644;2023-04-23T04:41:40;12.41;83.59
75786;DHT22;64402;44.708;37.644;2023-04-23T04:44:08;12.41;83.61
75786;DHT22;64402;44.708;37.644;2023-04-23T04:46:34;12.46;83.07
75786;DHT22;64402;44.708;37.644;2023-04-23T04:49:09;12.59;82.41
75786;DHT22;64402;44.708;37.644;2023-04-23T04:51:37;12.78;81.58
75786;DHT22;64402;44.708;37.644;2023-04-23T04:54:03;12.91;80.82
75786;DHT22;64402;44.708;37.644;2023-04-23T04:56:29;13.15;80.65
75786;DHT22;64402;44.708;37.644;2023-04-23T04:58:56;13.14;79.77
75786;DHT22;64402;44.708;37.644;2023-04-23T05:01:22;12.99;80.98
75786;DHT22;64402;44.708;37.644;2023-04-23T05:03:50;12.88;80.75
75786;DHT22;64402;44.708;37.644;2023-04-23T05:06:16;12.84;80.77
75786;DHT22;64402;44.708;37.644;2023-04-23T05:08:42;12.80;81.18
75786;DHT22;64402;44.708;37.644;2023-04-23T05:11:17;12.81;81.51
75786;DHT22;64402;44.708;37.644;2023-04-23T05:13:48;12.95;81.28
75786;DHT22;64402;44.708;37.644;2023-04-23T05:16:14;13.03;80.88
75786;DHT22;64402;44.708;37.644;2023-04-23T05:18:40;13.09;80.40
75786;DHT22;64402;44.708;37.644;2023-04-23T05:21:07;13.18;80.70
75786;DHT22;64402;44.708;37.644;2023-04-23T05:23:34;13.22;80.11
75786;DHT22;64402;44.708;37.644;2023-04-23T05:26:00;13.35;79.77
75786;DHT22;64402;44.708;37.644;2023-04-23T05:28:29;13.39;79.06
75786;DHT22;64402;44.708;37.644;2023-04-23T05:30:56;13.34;79.69
75786;DHT22;64402;44.708;37.644;2023-04-23T05:33:23;13.12;81.13
75786;DHT22;64402;44.708;37.644;2023-04-23T05:35:50;12.96;82.03
75786;DHT22;64402;44.708;37.644;2023-04-23T05:38:16;12.84;82.82
75786;DHT22;64402;44.708;37.644;2023-04-23T05:40:43;12.71;83.42
75786;DHT22;64402;44.708;37.644;2023-04-23T05:43:09;12.66;84.23
75786;DHT22;64402;44.708;37.644;2023-04-23T05:45:36;12.62;84.41
75786;DHT22;64402;44.708;37.644;2023-04-23T05:48:02;12.62;84.23
75786;DHT22;64402;44.708;37.644;2023-04-23T05:50:29;12.53;85.06
75786;DHT22;64402;44.708;37.644;2023-04-23T05:52:56;12.45;85.86
75786;DHT22;64402;44.708;37.644;2023-04-23T05:55:22;12.43;86.69
75786;DHT22;64402;44.708;37.644;2023-04-23T05:57:49;12.45;86.59
75786;DHT22;64402;44.708;37.644;2023-04-23T06:00:17;12.45;86.86
75786;DHT22;64402;44.708;37.644;2023-04-23T06:02:44;12.49;86.20
75786;DHT22;64402;44.708;37.644;2023-04-23T06:05:11;12.60;86.16
75786;DHT22;64402;44.708;37.644;2023-04-23T06:07:38;12.70;85.91
75786;DHT22;64402;44.708;37.644;2023-04-23T06:10:05;12.77;85.25
75786;DHT22;64402;44.708;37.644;2023-04-23T06:12:32;12.86;84.86
75786;DHT22;64402;44.708;37.644;2023-04-23T06:14:58;12.99;84.76
75786;DHT22;64402;44.708;37.644;2023-04-23T06:17:25;13.21;83.95
75786;DHT22;64402;44.708;37.644;2023-04-23T06:19:52;13.39;82.71
75786;DHT22;64402;44.708;37.644;2023-04-23T06:22:18;13.43;82.63
75786;DHT22;64402;44.708;37.644;2023-04-23T06:24:45;13.50;82.43
75786;DHT22;64402;44.708;37.644;2023-04-23T06:27:12;13.54;81.39
75786;DHT22;64402;44.708;37.644;2023-04-23T06:29:38;13.50;81.67
75786;DHT22;64402;44.708;37.644;2023-04-23T06:32:05;13.73;81.29
75786;DHT22;64402;44.708;37.644;2023-04-23T06:34:31;14.04;80.99
75786;DHT22;64402;44.708;37.644;2023-04-23T06:36:58;14.29;80.62
75786;DHT22;64402;44.708;37.644;2023-04-23T06:39:25;14.32;76.55
75786;DHT22;64402;44.708;37.644;2023-04-23T06:41:51;14.34;75.07
75786;DHT22;64402;44.708;37.644;2023-04-23T06:44:18;14.58;74.82
75786;DHT22;64402;44.708;37.644;2023-04-23T06:46:44;14.77;73.36
75786;DHT22;64402;44.708;37.644;2023-04-23T06:49:10;15.08;73.23
75786;DHT22;64402;44.708;37.644;2023-04-23T06:51:37;15.31;72.61
75786;DHT22;64402;44.708;37.644;2023-04-23T06:54:03;15.59;71.86
75786;DHT22;64402;44.708;37.644;2023-04-23T06:56:29;15.91;71.91
75786;DHT22;64402;44.708;37.644;2023-04-23T06:58:55;15.91;70.50
75786;DHT22;64402;44.708;37.644;2023-04-23T07:01:22;15.73;70.18
75786;DHT22;64402;44.708;37.644;2023-04-23T07:03:49;15.86;70.45
75786;DHT22;64402;44.708;37.644;2023-04-23T07:06:16;15.97;71.01
75786;DHT22;64402;44.708;37.644;2023-04-23T07:08:42;16.00;69.27
75786;DHT22;64402;44.708;37.644;2023-04-23T07:11:10;15.77;70.02
75786;DHT22;64402;44.708;37.644;2023-04-23T07:13:37;15.77;70.52
75786;DHT22;64402;44.708;37.644;2023-04-23T07:16:03;15.93;70.24
75786;DHT22;64402;44.708;37.644;2023-04-23T07:18:29;15.92;69.36
75786;DHT22;64402;44.708;37.644;2023-04-23T07:20:56;15.85;71.22
75786;DHT22;64402;44.708;37.644;2023-04-23T07:23:22;15.70;68.66
75786;DHT22;64402;44.708;37.644;2023-04-23T07:25:48;15.65;71.45
75786;DHT22;64402;44.708;37.644;2023-04-23T07:28:14;15.81;70.67
75786;DHT22;64402;44.708;37.644;2023-04-23T07:30:40;15.87;69.23
75786;DHT22;64402;44.708;37.644;2023-04-23T07:33:06;15.84;69.65
75786;DHT22;64402;44.708;37.644;2023-04-23T07:35:33;15.90;69.55
75786;DHT22;64402;44.708;37.644;2023-04-23T07:37:59;15.87;68.55
75786;DHT22;64402;44.708;37.644;2023-04-23T07:40:25;16.07;69.33
75786;DHT22;64402;44.708;37.644;2023-04-23T07:42:51;16.04;68.69
75786;DHT22;64402;44.708;37.644;2023-04-23T07:45:18;16.08;69.11
75786;DHT22;64402;44.708;37.644;2023-04-23T07:47:44;16.03;68.61
75786;DHT22;64402;44.708;37.644;2023-04-23T07:50:13;16.31;69.10
75786;DHT22;64402;44.708;37.644;2023-04-23T07:52:40;16.71;67.48
75786;DHT22;64402;44.708;37.644;2023-04-23T07:55:07;16.74;67.63
75786;DHT22;64402;44.708;37.644;2023-04-23T07:57:33;16.93;67.17
75786;DHT22;64402;44.708;37.644;2023-04-23T08:00:00;16.93;67.22
75786;DHT22;64402;44.708;37.644;2023-04-23T08:02:27;17.02;67.42
75786;DHT22;64402;44.708;37.644;2023-04-23T08:04:53;17.06;65.80
75786;DHT22;64402;44.708;37.644;2023-04-23T08:07:21;16.99;65.50
75786;DHT22;64402;44.708;37.644;2023-04-23T08:09:47;16.74;65.47
75786;DHT22;64402;44.708;37.644;2023-04-23T08:12:14;16.39;67.88
75786;DHT22;64402;44.708;37.644;2023-04-23T08:14:43;17.02;66.90
75786;DHT22;64402;44.708;37.644;2023-04-23T08:17:09;17.06;64.87
75786;DHT22;64402;44.708;37.644;2023-04-23T08:19:35;16.99;65.49
75786;DHT22;64402;44.708;37.644;2023-04-23T08:22:02;18.91;59.95
75786;DHT22;64402;44.708;37.644;2023-04-23T08:24:28;19.30;58.67
75786;DHT22;64402;44.708;37.644;2023-04-23T08:26:55;18.83;58.37
75786;DHT22;64402;44.708;37.644;2023-04-23T08:29:21;19.55;56.64
75786;DHT22;64402;44.708;37.644;2023-04-23T08:31:48;20.84;53.09
75786;DHT22;64402;44.708;37.644;2023-04-23T08:34:14;21.48;51.95
75786;DHT22;64402;44.708;37.644;2023-04-23T08:36:41;22.01;49.07
75786;DHT22;64402;44.708;37.644;2023-04-23T08:39:07;21.90;49.02
75786;DHT22;64402;44.708;37.644;2023-04-23T08:41:38;20.94;52.63
75786;DHT22;64402;44.708;37.644;2023-04-23T08:44:17;22.13;49.32
75786;DHT22;64402;44.708;37.644;2023-04-23T08:46:45;22.23;48.44
75786;DHT22;64402;44.708;37.644;2023-04-23T08:49:13;23.30;45.63
75786;DHT22;64402;44.708;37.644;2023-04-23T08:51:53;23.79;44.97
75786;DHT22;64402;44.708;37.644;2023-04-23T08:54:27;23.97;43.59
75786;DHT22;64402;44.708;37.644;2023-04-23T08:56:55;24.98;41.63
75786;DHT22;64402;44.708;37.644;2023-04-23T08:59:25;25.38;40.58
75786;DHT22;64402;44.708;37.644;2023-04-23T09:01:52;25.13;40.74
75786;DHT22;64402;44.708;37.644;2023-04-23T09:04:19;23.47;44.07
75786;DHT22;64402;44.708;37.644;2023-04-23T09:06:46;24.05;43.67
75786;DHT22;64402;44.708;37.644;2023-04-23T09:09:15;25.17;41.30
75786;DHT22;64402;44.708;37.644;2023-04-23T09:11:45;25.34;40.51
75786;DHT22;64402;44.708;37.644;2023-04-23T09:14:12;25.59;40.23
75786;DHT22;64402;44.708;37.644;2023-04-23T09:16:39;25.83;39.93
75786;DHT22;64402;44.708;37.644;2023-04-23T09:19:10;25.74;39.51
75786;DHT22;64402;44.708;37.644;2023-04-23T09:21:38;25.95;37.88
75786;DHT22;64402;44.708;37.644;2023-04-23T09:24:11;26.19;37.17
75786;DHT22;64402;44.708;37.644;2023-04-23T09:26:44;26.16;37.34
75786;DHT22;64402;44.708;37.644;2023-04-23T09:29:21;26.02;37.67
75786;DHT22;64402;44.708;37.644;2023-04-23T09:31:50;26.23;37.63
75786;DHT22;64402;44.708;37.644;2023-04-23T09:34:18;26.30;37.14
75786;DHT22;64402;44.708;37.644;2023-04-23T09:36:48;26.30;36.73
75786;DHT22;64402;44.708;37.644;2023-04-23T09:39:22;26.02;37.17
75786;DHT22;64402;44.708;37.644;2023-04-23T09:41:52;26.35;36.99
75786;DHT22;64402;44.708;37.644;2023-04-23T09:44:20;26.70;36.73
75786;DHT22;64402;44.708;37.644;2023-04-23T09:46:51;27.04;36.51
75786;DHT22;64402;44.708;37.644;2023-04-23T09:49:17;26.98;34.73
75786;DHT22;64402;44.708;37.644;2023-04-23T09:51:45;26.26;37.89
75786;DHT22;64402;44.708;37.644;2023-04-23T09:54:16;27.07;35.48
75786;DHT22;64402;44.708;37.644;2023-04-23T09:56:52;26.92;35.50
75786;DHT22;64402;44.708;37.644;2023-04-23T09:59:28;27.60;34.48
75786;DHT22;64402;44.708;37.644;2023-04-23T10:01:55;27.31;34.78
75786;DHT22;64402;44.708;37.644;2023-04-23T10:04:24;26.63;33.78
75786;DHT22;64402;44.708;37.644;2023-04-23T10:07:02;26.87;35.55
75786;DHT22;64402;44.708;37.644;2023-04-23T10:09:30;27.45;34.40
75786;DHT22;64402;44.708;37.644;2023-04-23T10:11:58;26.35;35.59
75786;DHT22;64402;44.708;37.644;2023-04-23T10:14:25;27.08;35.11
75786;DHT22;64402;44.708;37.644;2023-04-23T10:16:56;27.97;34.17
75786;DHT22;64402;44.708;37.644;2023-04-23T10:19:24;27.89;33.70
75786;DHT22;64402;44.708;37.644;2023-04-23T10:21:57;27.45;34.07
75786;DHT22;64402;44.708;37.644;2023-04-23T10:24:28;27.73;34.21
75786;DHT22;64402;44.708;37.644;2023-04-23T10:26:56;27.86;33.67
75786;DHT22;64402;44.708;37.644;2023-04-23T10:29:27;26.22;35.89
75786;DHT22;64402;44.708;37.644;2023-04-23T10:31:59;26.96;35.10
75786;DHT22;64402;44.708;37.644;2023-04-23T10:34:27;26.47;36.84
75786;DHT22;64402;44.708;37.644;2023-04-23T10:36:57;26.34;36.41
75786;DHT22;64402;44.708;37.644;2023-04-23T10:39:26;25.75;37.64
75786;DHT22;64402;44.708;37.644;2023-04-23T10:41:54;25.75;37.11
75786;DHT22;64402;44.708;37.644;2023-04-23T10:44:21;26.57;36.13
75786;DHT22;64402;44.708;37.644;2023-04-23T10:46:55;26.52;35.38
75786;DHT22;64402;44.708;37.644;2023-04-23T10:49:23;26.76;34.73
75786;DHT22;64402;44.708;37.644;2023-04-23T10:52:13;26.91;34.26
75786;DHT22;64402;44.708;37.644;2023-04-23T10:55:02;28.05;31.36
75786;DHT22;64402;44.708;37.644;2023-04-23T10:57:28;27.64;31.69
75786;DHT22;64402;44.708;37.644;2023-04-23T10:59:54;26.60;33.38
75786;DHT22;64402;44.708;37.644;2023-04-23T11:02:23;27.38;32.67
75786;DHT22;64402;44.708;37.644;2023-04-23T11:04:58;26.85;33.95
75786;DHT22;64402;44.708;37.644;2023-04-23T11:07:30;26.36;34.18
75786;DHT22;64402;44.708;37.644;2023-04-23T11:10:13;26.56;34.76
75786;DHT22;64402;44.708;37.644;2023-04-23T11:12:40;25.60;37.57
75786;DHT22;64402;44.708;37.644;2023-04-23T11:15:14;25.09;34.52
75786;DHT22;64402;44.708;37.644;2023-04-23T11:20:14;26.83;34.79
75786;DHT22;64402;44.708;37.644;2023-04-23T11:22:42;27.26;32.19
75786;DHT22;64402;44.708;37.644;2023-04-23T11:25:26;26.36;33.66
75786;DHT22;64402;44.708;37.644;2023-04-23T11:27:54;27.85;31.84
75786;DHT22;64402;44.708;37.644;2023-04-23T11:30:26;27.02;34.25
75786;DHT22;64402;44.708;37.644;2023-04-23T11:32:55;26.68;34.05
75786;DHT22;64402;44.708;37.644;2023-04-23T11:35:23;25.93;36.06
75786;DHT22;64402;44.708;37.644;2023-04-23T11:37:53;24.89;37.93
75786;DHT22;64402;44.708;37.644;2023-04-23T11:40:21;25.88;34.86
75786;DHT22;64402;44.708;37.644;2023-04-23T11:42:53;25.71;36.37
75786;DHT22;64402;44.708;37.644;2023-04-23T11:45:25;24.58;38.78
75786;DHT22;64402;44.708;37.644;2023-04-23T11:47:56;25.23;38.15
75786;DHT22;64402;44.708;37.644;2023-04-23T11:50:32;27.44;33.10
75786;DHT22;64402;44.708;37.644;2023-04-23T11:53:05;27.96;32.83
75786;DHT22;64402;44.708;37.644;2023-04-23T11:55:32;26.28;34.21
75786;DHT22;64402;44.708;37.644;2023-04-23T11:57:58;26.45;34.08
75786;DHT22;64402;44.708;37.644;2023-04-23T12:00:26;27.11;32.69
75786;DHT22;64402;44.708;37.644;2023-04-23T12:02:56;27.95;31.03
75786;DHT22;64402;44.708;37.644;2023-04-23T12:05:32;27.52;31.43
75786;DHT22;64402;44.708;37.644;2023-04-23T12:08:19;28.40;32.23
75786;DHT22;64402;44.708;37.644;2023-04-23T12:10:50;28.40;30.88
75786;DHT22;64402;44.708;37.644;2023-04-23T12:13:22;28.38;30.42
75786;DHT22;64402;44.708;37.644;2023-04-23T12:15:51;28.84;28.48
75786;DHT22;64402;44.708;37.644;2023-04-23T12:18:17;28.84;28.97
75786;DHT22;64402;44.708;37.644;2023-04-23T12:20:44;29.98;28.36
75786;DHT22;64402;44.708;37.644;2023-04-23T12:23:10;30.84;26.47
75786;DHT22;64402;44.708;37.644;2023-04-23T12:25:39;30.57;26.17
75786;DHT22;64402;44.708;37.644;2023-04-23T12:28:07;29.93;27.00
75786;DHT22;64402;44.708;37.644;2023-04-23T12:30:40;29.53;27.21
75786;DHT22;64402;44.708;37.644;2023-04-23T12:33:09;29.02;27.77
75786;DHT22;64402;44.708;37.644;2023-04-23T12:35:44;29.28;28.68
75786;DHT22;64402;44.708;37.644;2023-04-23T12:38:28;29.09;26.63
75786;DHT22;64402;44.708;37.644;2023-04-23T12:40:56;28.09;30.23
75786;DHT22;64402;44.708;37.644;2023-04-23T12:43:24;28.00;29.61
75786;DHT22;64402;44.708;37.644;2023-04-23T12:45:51;27.90;31.28
75786;DHT22;64402;44.708;37.644;2023-04-23T12:48:18;27.98;30.95
75786;DHT22;64402;44.708;37.644;2023-04-23T12:50:45;28.25;30.19
75786;DHT22;64402;44.708;37.644;2023-04-23T12:53:13;28.13;30.21
75786;DHT22;64402;44.708;37.644;2023-04-23T12:55:39;28.27;28.40
75786;DHT22;64402;44.708;37.644;2023-04-23T12:58:08;27.81;30.35
75786;DHT22;64402;44.708;37.644;2023-04-23T13:00:34;26.87;31.86
75786;DHT22;64402;44.708;37.644;2023-04-23T13:03:01;27.73;31.57
75786;DHT22;64402;44.708;37.644;2023-04-23T13:05:28;28.97;29.03
75786;DHT22;64402;44.708;37.644;2023-04-23T13:07:54;29.22;28.75
75786;DHT22;64402;44.708;37.644;2023-04-23T13:10:20;30.01;28.03
75786;DHT22;64402;44.708;37.644;2023-04-23T13:12:47;30.02;27.59
75786;DHT22;64402;44.708;37.644;2023-04-23T13:15:13;30.30;26.39
75786;DHT22;64402;44.708;37.644;2023-04-23T13:17:40;30.02;27.02
75786;DHT22;64402;44.708;37.644;2023-04-23T13:20:07;30.30;26.25
75786;DHT22;64402;44.708;37.644;2023-04-23T13:22:34;29.78;26.98
75786;DHT22;64402;44.708;37.644;2023-04-23T13:25:01;29.39;27.89
75786;DHT22;64402;44.708;37.644;2023-04-23T13:27:28;28.77;28.50
75786;DHT22;64402;44.708;37.644;2023-04-23T13:29:56;28.13;30.34
75786;DHT22;64402;44.708;37.644;2023-04-23T13:32:24;27.74;31.45
75786;DHT22;64402;44.708;37.644;2023-04-23T13:34:55;26.93;32.58
75786;DHT22;64402;44.708;37.644;2023-04-23T13:37:28;27.08;32.66
75786;DHT22;64402;44.708;37.644;2023-04-23T13:39:57;26.89;32.19
75786;DHT22;64402;44.708;37.644;2023-04-23T13:42:25;27.02;33.09
75786;DHT22;64402;44.708;37.644;2023-04-23T13:44:52;27.07;32.06
75786;DHT22;64402;44.708;37.644;2023-04-23T13:47:19;26.45;32.69
75786;DHT22;64402;44.708;37.644;2023-04-23T13:49:46;26.53;33.20
75786;DHT22;64402;44.708;37.644;2023-04-23T13:52:12;26.94;32.57
75786;DHT22;64402;44.708;37.644;2023-04-23T13:54:39;27.24;32.08
75786;DHT22;64402;44.708;37.644;2023-04-23T13:57:05;27.28;31.13
75786;DHT22;64402;44.708;37.644;2023-04-23T13:59:31;27.41;31.05
75786;DHT22;64402;44.708;37.644;2023-04-23T14:01:58;27.64;30.59
75786;DHT22;64402;44.708;37.644;2023-04-23T14:04:24;27.25;31.64
75786;DHT22;64402;44.708;37.644;2023-04-23T14:06:51;27.98;30.11
75786;DHT22;64402;44.708;37.644;2023-04-23T14:09:17;28.12;29.10
75786;DHT22;64402;44.708;37.644;2023-04-23T14:11:43;27.80;31.40
75786;DHT22;64402;44.708;37.644;2023-04-23T14:14:10;27.67;30.09
75786;DHT22;64402;44.708;37.644;2023-04-23T14:16:36;27.08;31.12
75786;DHT22;64402;44.708;37.644;2023-04-23T14:19:02;27.63;30.20
75786;DHT22;64402;44.708;37.644;2023-04-23T14:21:28;27.12;31.66
75786;DHT22;64402;44.708;37.644;2023-04-23T14:24:00;27.05;31.76
75786;DHT22;64402;44.708;37.644;2023-04-23T14:29:02;26.18;32.86
75786;DHT22;64402;44.708;37.644;2023-04-23T14:31:29;25.61;34.13
75786;DHT22;64402;44.708;37.644;2023-04-23T14:33:55;26.23;33.19
75786;DHT22;64402;44.708;37.644;2023-04-23T14:36:23;27.14;31.43
75786;DHT22;64402;44.708;37.644;2023-04-23T14:38:50;26.77;31.01
75786;DHT22;64402;44.708;37.644;2023-04-23T14:41:16;26.91;31.03
75786;DHT22;64402;44.708;37.644;2023-04-23T14:43:42;26.62;31.60
75786;DHT22;64402;44.708;37.644;2023-04-23T14:46:09;26.34;32.96
75786;DHT22;64402;44.708;37.644;2023-04-23T14:48:35;25.96;33.21
75786;DHT22;64402;44.708;37.644;2023-04-23T14:51:02;25.90;33.55
75786;DHT22;64402;44.708;37.644;2023-04-23T14:53:28;25.83;33.70
75786;DHT22;64402;44.708;37.644;2023-04-23T14:55:55;25.81;33.87
75786;DHT22;64402;44.708;37.644;2023-04-23T14:58:21;25.42;34.41
75786;DHT22;64402;44.708;37.644;2023-04-23T15:00:48;25.04;36.02
75786;DHT22;64402;44.708;37.644;2023-04-23T15:03:16;25.08;35.57
75786;DHT22;64402;44.708;37.644;2023-04-23T15:05:42;24.76;36.55
75786;DHT22;64402;44.708;37.644;2023-04-23T15:08:08;25.57;34.53
75786;DHT22;64402;44.708;37.644;2023-04-23T15:10:35;24.98;36.66
75786;DHT22;64402;44.708;37.644;2023-04-23T15:13:30;24.93;36.44
75786;DHT22;64402;44.708;37.644;2023-04-23T15:16:07;25.67;35.28
75786;DHT22;64402;44.708;37.644;2023-04-23T15:18:34;25.99;33.99
75786;DHT22;64402;44.708;37.644;2023-04-23T15:21:01;24.72;36.17
75786;DHT22;64402;44.708;37.644;2023-04-23T15:23:31;24.26;37.85
75786;DHT22;64402;44.708;37.644;2023-04-23T15:25:58;24.49;37.30